Risingsun, Ohio
Current Conditions -  °F | °C
As of 3:53 PM on Thursday 23 Oct 2014 (Local Time) from KTDZ Reporting Station
Haze Haze  
Wind Chill: 58°   Ceiling: Unl
Heat Index: 58°   Visibility: 6mi
Dew Point: 40°   Wind: 3mph
Humidity: 51%   Direction: 280°W
Pressure: 30.16"   Gusts: NA
Location:  41.27°N, 83.42°W
Report Text: KTDZ 231953Z AUTO 28003KT 6SM HZ CLR 14/04 A3016 RMK AO2 SLP214 T01440044 TSNO
Loading
Personal Weather Stations






























Interactive Weather Map
Tropical Storm Tracking
New forecast layout! Learn more

10-Day Weather Forecast

Advertisements
Track Severe Weather on mobile